PWSweather.com
Personal Weather Stations
Station Observations
IONTARIO88
Lincoln, ON L0R

Lincoln, ON L0R

Lat: 43.1763563, Lon: -79.4719525

Elevation: 297

Station Type: Davis Vantage Pro 2 Plus

http://www.beamsvillewx.ca

High Low Average
Temperature 64.9°F18.3°C 39.0°F3.9°C 54.9°F12.7°C
Dew Point 58.7°F14.8°C 37.3°F2.9°C 51.7°F10.9°C
Winds 13.0 mph 20.9 kmh Calm Calm 6.0 mph SSW9.7 kmh SSW
Wind Gusts 27.0 mph43.5 kmh -- 14.0 mph22.5 kmh
Humidity 94% 71% 89%
Pressure 30.04 in1017.3 mb 29.98 in1015.2 mb -
Precipitation 0.29 in7.4 mm - -
Hour Temp Dew Point Humidity Winds Wind Gusts Pressure Precip Precip Rate Daily Precip Total
12:00 AM 39.7°F4.3°C 37.9°F3.3°C 93% Calm Calm -- 30.00 in1015.9 mb 0.01 in0.3 mm 0.00 in0.0 mm 0.35 in8.9 mm
12:15 AM 39.7°F4.3°C 37.9°F3.3°C 93% Calm Calm 3.0 mph4.8 kmh 30.01 in1016.3 mb 0.01 in0.3 mm 0.00 in0.0 mm 0.35 in8.9 mm
12:30 AM 39.6°F4.2°C 37.7°F3.2°C 93% 3.0 mph NNW4.8 kmh NNW 6.0 mph9.7 kmh 30.01 in1016.3 mb 0.01 in0.3 mm 0.00 in0.0 mm 0.35 in8.9 mm
12:45 AM 39.0°F3.9°C 37.2°F2.9°C 93% 3.0 mph NNW4.8 kmh NNW 8.0 mph12.9 kmh 30.02 in1016.6 mb 0.00 in0.0 mm 0.00 in0.0 mm 0.35 in8.9 mm
01:00 AM 39.2°F4.0°C 37.3°F2.9°C 93% 2.0 mph NNW3.2 kmh NNW 6.0 mph9.7 kmh 30.02 in1016.6 mb 0.00 in0.0 mm 0.00 in0.0 mm 0.01 in0.3 mm
01:15 AM 39.0°F3.9°C 37.4°F3.0°C 94% 2.0 mph NW3.2 kmh NW 7.0 mph11.3 kmh 30.03 in1016.9 mb 0.00 in0.0 mm 0.00 in0.0 mm 0.01 in0.3 mm
01:30 AM 39.0°F3.9°C 37.4°F3.0°C 94% Calm Calm 1.0 mph1.6 kmh 30.03 in1016.9 mb 0.00 in0.0 mm 0.00 in0.0 mm 0.01 in0.3 mm
01:45 AM 39.4°F4.1°C 37.8°F3.2°C 94% Calm Calm -- 30.02 in1016.6 mb 0.00 in0.0 mm 0.00 in0.0 mm 0.01 in0.3 mm
02:00 AM 39.7°F4.3°C 38.2°F3.4°C 94% Calm Calm -- 30.02 in1016.6 mb 0.00 in0.0 mm 0.00 in0.0 mm 0.01 in0.3 mm
02:15 AM 40.3°F4.6°C 38.7°F3.7°C 94% Calm Calm -- 30.01 in1016.3 mb 0.00 in0.0 mm 0.00 in0.0 mm 0.01 in0.3 mm
02:30 AM 40.6°F4.8°C 39.0°F3.9°C 94% Calm Calm -- 30.00 in1015.9 mb 0.00 in0.0 mm 0.00 in0.0 mm 0.01 in0.3 mm
02:45 AM 40.5°F4.7°C 38.6°F3.7°C 93% Calm Calm 2.0 mph3.2 kmh 30.00 in1015.9 mb 0.00 in0.0 mm 0.00 in0.0 mm 0.01 in0.3 mm
03:00 AM 40.8°F4.9°C 39.2°F4.0°C 94% Calm Calm -- 30.00 in1015.9 mb 0.00 in0.0 mm 0.00 in0.0 mm 0.01 in0.3 mm
03:15 AM 41.7°F5.4°C 40.1°F4.5°C 94% Calm Calm -- 30.00 in1015.9 mb 0.00 in0.0 mm 0.00 in0.0 mm 0.01 in0.3 mm
03:30 AM 41.2°F5.1°C 39.6°F4.2°C 94% 2.0 mph NW3.2 kmh NW 6.0 mph9.7 kmh 30.01 in1016.3 mb 0.02 in0.5 mm 0.08 in2.0 mm 0.02 in0.5 mm
03:45 AM 40.6°F4.8°C 39.0°F3.9°C 94% Calm Calm -- 30.00 in1015.9 mb 0.03 in0.8 mm 0.04 in1.0 mm 0.03 in0.8 mm
04:00 AM 40.6°F4.8°C 39.0°F3.9°C 94% Calm Calm -- 29.99 in1015.6 mb 0.04 in1.0 mm 0.01 in0.3 mm 0.04 in1.0 mm
04:15 AM 40.6°F4.8°C 38.8°F3.8°C 93% Calm Calm -- 29.99 in1015.6 mb 0.04 in1.0 mm 0.00 in0.0 mm 0.04 in1.0 mm
04:30 AM 39.7°F4.3°C 37.9°F3.3°C 93% 5.0 mph NW8.0 kmh NW 9.0 mph14.5 kmh 30.00 in1015.9 mb 0.01 in0.3 mm 0.00 in0.0 mm 0.04 in1.0 mm
04:45 AM 39.4°F4.1°C 37.8°F3.2°C 94% 1.0 mph NW1.6 kmh NW 6.0 mph9.7 kmh 29.99 in1015.6 mb 0.01 in0.3 mm 0.00 in0.0 mm 0.04 in1.0 mm
05:00 AM 39.6°F4.2°C 38.0°F3.3°C 94% Calm Calm 2.0 mph3.2 kmh 30.00 in1015.9 mb 0.00 in0.0 mm 0.00 in0.0 mm 0.04 in1.0 mm
05:15 AM 39.2°F4.0°C 37.6°F3.1°C 94% 2.0 mph NNW3.2 kmh NNW 6.0 mph9.7 kmh 30.01 in1016.3 mb 0.00 in0.0 mm 0.00 in0.0 mm 0.04 in1.0 mm
05:30 AM 39.6°F4.2°C 38.0°F3.3°C 94% 1.0 mph NNW1.6 kmh NNW 3.0 mph4.8 kmh 30.01 in1016.3 mb 0.01 in0.3 mm 0.04 in1.0 mm 0.05 in1.3 mm
05:45 AM 39.9°F4.4°C 38.3°F3.5°C 94% Calm Calm 3.0 mph4.8 kmh 30.01 in1016.3 mb 0.03 in0.8 mm 0.08 in2.0 mm 0.07 in1.8 mm
06:00 AM 44.2°F6.8°C 42.6°F5.9°C 94% 1.0 mph SW1.6 kmh SW 8.0 mph12.9 kmh 30.00 in1015.9 mb 0.05 in1.3 mm 0.03 in0.8 mm 0.09 in2.3 mm
06:15 AM 53.1°F11.7°C 51.4°F10.8°C 94% 4.0 mph SW6.4 kmh SW 11.0 mph17.7 kmh 30.00 in1015.9 mb 0.06 in1.5 mm 0.04 in1.0 mm 0.09 in2.3 mm
06:30 AM 53.8°F12.1°C 52.1°F11.2°C 94% 5.0 mph SW8.0 kmh SW 12.0 mph19.3 kmh 30.00 in1015.9 mb 0.05 in1.3 mm 0.00 in0.0 mm 0.09 in2.3 mm
06:45 AM 53.8°F12.1°C 52.1°F11.2°C 94% 5.0 mph SW8.0 kmh SW 18.0 mph29.0 kmh 30.00 in1015.9 mb 0.02 in0.5 mm 0.00 in0.0 mm 0.09 in2.3 mm
07:00 AM 54.1°F12.3°C 52.5°F11.4°C 94% 8.0 mph SW12.9 kmh SW 18.0 mph29.0 kmh 30.00 in1015.9 mb 0.01 in0.3 mm 0.00 in0.0 mm 0.09 in2.3 mm
07:15 AM 54.3°F12.4°C 52.0°F11.1°C 92% 9.0 mph SW14.5 kmh SW 18.0 mph29.0 kmh 29.99 in1015.6 mb 0.00 in0.0 mm 0.00 in0.0 mm 0.09 in2.3 mm
07:30 AM 54.1°F12.3°C 51.9°F11.1°C 92% 9.0 mph SW14.5 kmh SW 18.0 mph29.0 kmh 29.99 in1015.6 mb 0.00 in0.0 mm 0.00 in0.0 mm 0.09 in2.3 mm
07:45 AM 54.7°F12.6°C 52.4°F11.3°C 92% 11.0 mph SW17.7 kmh SW 20.0 mph32.2 kmh 30.00 in1015.9 mb 0.00 in0.0 mm 0.00 in0.0 mm 0.09 in2.3 mm
08:00 AM 55.0°F12.8°C 52.8°F11.6°C 92% 9.0 mph SW14.5 kmh SW 18.0 mph29.0 kmh 30.00 in1015.9 mb 0.01 in0.3 mm 0.01 in0.3 mm 0.10 in2.5 mm
08:15 AM 54.9°F12.7°C 52.6°F11.4°C 92% 8.0 mph SW12.9 kmh SW 18.0 mph29.0 kmh 29.99 in1015.6 mb 0.01 in0.3 mm 0.00 in0.0 mm 0.10 in2.5 mm
08:30 AM 54.1°F12.3°C 51.9°F11.1°C 92% 9.0 mph SW14.5 kmh SW 18.0 mph29.0 kmh 29.99 in1015.6 mb 0.02 in0.5 mm 0.04 in1.0 mm 0.11 in2.8 mm
08:45 AM 54.0°F12.2°C 51.7°F10.9°C 92% 9.0 mph SW14.5 kmh SW 18.0 mph29.0 kmh 30.00 in1015.9 mb 0.02 in0.5 mm 0.00 in0.0 mm 0.11 in2.8 mm
09:00 AM 54.3°F12.4°C 52.3°F11.3°C 93% 8.0 mph SW12.9 kmh SW 16.0 mph25.7 kmh 30.01 in1016.3 mb 0.02 in0.5 mm 0.00 in0.0 mm 0.13 in3.3 mm
09:15 AM 54.3°F12.4°C 52.3°F11.3°C 93% 7.0 mph SW11.3 kmh SW 15.0 mph24.1 kmh 30.01 in1016.3 mb 0.06 in1.5 mm 0.16 in4.1 mm 0.16 in4.1 mm
09:30 AM 55.0°F12.8°C 53.1°F11.7°C 93% 8.0 mph SW12.9 kmh SW 15.0 mph24.1 kmh 30.01 in1016.3 mb 0.06 in1.5 mm 0.00 in0.0 mm 0.17 in4.3 mm
09:45 AM 55.8°F13.2°C 53.8°F12.1°C 93% 8.0 mph SW12.9 kmh SW 17.0 mph27.4 kmh 30.01 in1016.3 mb 0.09 in2.3 mm 0.12 in3.0 mm 0.20 in5.1 mm
10:00 AM 56.1°F13.4°C 54.1°F12.3°C 93% 8.0 mph SW12.9 kmh SW 15.0 mph24.1 kmh 30.02 in1016.6 mb 0.09 in2.3 mm 0.00 in0.0 mm 0.22 in5.6 mm
10:15 AM 56.1°F13.4°C 54.1°F12.3°C 93% 9.0 mph SW14.5 kmh SW 18.0 mph29.0 kmh 30.02 in1016.6 mb 0.08 in2.0 mm 0.00 in0.0 mm 0.24 in6.1 mm
10:30 AM 56.1°F13.4°C 54.1°F12.3°C 93% 9.0 mph SW14.5 kmh SW 18.0 mph29.0 kmh 30.02 in1016.6 mb 0.08 in2.0 mm 0.00 in0.0 mm 0.24 in6.1 mm
10:45 AM 55.9°F13.3°C 53.9°F12.2°C 93% 8.0 mph SW12.9 kmh SW 18.0 mph29.0 kmh 30.02 in1016.6 mb 0.04 in1.0 mm 0.00 in0.0 mm 0.24 in6.1 mm
11:00 AM 55.8°F13.2°C 53.5°F11.9°C 92% 8.0 mph SW12.9 kmh SW 18.0 mph29.0 kmh 30.02 in1016.6 mb 0.02 in0.5 mm 0.00 in0.0 mm 0.24 in6.1 mm
11:15 AM 55.6°F13.1°C 53.3°F11.8°C 92% 9.0 mph SW14.5 kmh SW 17.0 mph27.4 kmh 30.02 in1016.6 mb 0.01 in0.3 mm 0.00 in0.0 mm 0.24 in6.1 mm
11:30 AM 55.2°F12.9°C 52.9°F11.6°C 92% 7.0 mph SW11.3 kmh SW 14.0 mph22.5 kmh 30.02 in1016.6 mb 0.00 in0.0 mm 0.00 in0.0 mm 0.24 in6.1 mm
11:45 AM 55.9°F13.3°C 53.9°F12.2°C 93% 7.0 mph SW11.3 kmh SW 13.0 mph20.9 kmh 30.01 in1016.3 mb 0.01 in0.3 mm 0.04 in1.0 mm 0.25 in6.4 mm
12:00 PM 56.1°F13.4°C 53.8°F12.1°C 92% 6.0 mph SW9.7 kmh SW 13.0 mph20.9 kmh 30.00 in1015.9 mb 0.01 in0.3 mm 0.00 in0.0 mm 0.25 in6.4 mm
12:15 PM 56.5°F13.6°C 54.2°F12.3°C 92% 5.0 mph SW8.0 kmh SW 14.0 mph22.5 kmh 30.00 in1015.9 mb 0.01 in0.3 mm 0.00 in0.0 mm 0.25 in6.4 mm
12:30 PM 57.6°F14.2°C 55.0°F12.8°C 91% 6.0 mph SW9.7 kmh SW 10.0 mph16.1 kmh 30.00 in1015.9 mb 0.01 in0.3 mm 0.00 in0.0 mm 0.25 in6.4 mm
12:45 PM 58.8°F14.9°C 55.9°F13.3°C 90% 6.0 mph SW9.7 kmh SW 13.0 mph20.9 kmh 30.00 in1015.9 mb 0.00 in0.0 mm 0.00 in0.0 mm 0.25 in6.4 mm
01:00 PM 60.8°F16.0°C 56.9°F13.8°C 87% 8.0 mph SW12.9 kmh SW 18.0 mph29.0 kmh 30.00 in1015.9 mb 0.01 in0.3 mm 0.01 in0.3 mm 0.26 in6.6 mm
01:15 PM 61.3°F16.3°C 56.5°F13.6°C 84% 8.0 mph SW12.9 kmh SW 18.0 mph29.0 kmh 30.00 in1015.9 mb 0.01 in0.3 mm 0.00 in0.0 mm 0.26 in6.6 mm
01:30 PM 61.3°F16.3°C 56.5°F13.6°C 84% 10.0 mph SW16.1 kmh SW 18.0 mph29.0 kmh 30.00 in1015.9 mb 0.01 in0.3 mm 0.00 in0.0 mm 0.26 in6.6 mm
01:45 PM 61.9°F16.6°C 57.0°F13.9°C 84% 10.0 mph SW16.1 kmh SW 21.0 mph33.8 kmh 30.00 in1015.9 mb 0.01 in0.3 mm 0.00 in0.0 mm 0.26 in6.6 mm
02:00 PM 61.2°F16.2°C 57.3°F14.1°C 87% 10.0 mph SW16.1 kmh SW 19.0 mph30.6 kmh 30.00 in1015.9 mb 0.00 in0.0 mm 0.00 in0.0 mm 0.26 in6.6 mm
02:15 PM 61.0°F16.1°C 57.1°F13.9°C 87% 10.0 mph SW16.1 kmh SW 21.0 mph33.8 kmh 30.00 in1015.9 mb 0.00 in0.0 mm 0.00 in0.0 mm 0.26 in6.6 mm
02:30 PM 61.0°F16.1°C 57.1°F13.9°C 87% 10.0 mph SW16.1 kmh SW 23.0 mph37.0 kmh 30.00 in1015.9 mb 0.00 in0.0 mm 0.00 in0.0 mm 0.26 in6.6 mm
02:45 PM 59.7°F15.4°C 56.8°F13.8°C 90% 9.0 mph SW14.5 kmh SW 17.0 mph27.4 kmh 30.00 in1015.9 mb 0.02 in0.5 mm 0.08 in2.0 mm 0.28 in7.1 mm
03:00 PM 60.1°F15.6°C 57.4°F14.1°C 91% 10.0 mph SW16.1 kmh SW 22.0 mph35.4 kmh 30.00 in1015.9 mb 0.02 in0.5 mm 0.00 in0.0 mm 0.28 in7.1 mm
03:15 PM 60.3°F15.7°C 57.6°F14.2°C 91% 13.0 mph SW20.9 kmh SW 27.0 mph43.5 kmh 29.99 in1015.6 mb 0.02 in0.5 mm 0.00 in0.0 mm 0.28 in7.1 mm
03:30 PM 60.4°F15.8°C 57.8°F14.3°C 91% 10.0 mph SW16.1 kmh SW 21.0 mph33.8 kmh 30.00 in1015.9 mb 0.03 in0.8 mm 0.04 in1.0 mm 0.29 in7.4 mm
03:45 PM 60.4°F15.8°C 57.8°F14.3°C 91% 10.0 mph SW16.1 kmh SW 21.0 mph33.8 kmh 30.00 in1015.9 mb 0.02 in0.5 mm 0.00 in0.0 mm 0.29 in7.4 mm
04:00 PM 61.2°F16.2°C 58.2°F14.6°C 90% 12.0 mph SW19.3 kmh SW 23.0 mph37.0 kmh 30.00 in1015.9 mb 0.02 in0.5 mm 0.00 in0.0 mm 0.29 in7.4 mm
04:15 PM 61.3°F16.3°C 58.1°F14.5°C 89% 11.0 mph SW17.7 kmh SW 23.0 mph37.0 kmh 30.00 in1015.9 mb 0.01 in0.3 mm 0.00 in0.0 mm 0.29 in7.4 mm
04:30 PM 61.5°F16.4°C 58.2°F14.6°C 89% 12.0 mph SW19.3 kmh SW 24.0 mph38.6 kmh 30.00 in1015.9 mb 0.00 in0.0 mm 0.00 in0.0 mm 0.29 in7.4 mm
04:45 PM 62.1°F16.7°C 58.5°F14.7°C 88% 13.0 mph SW20.9 kmh SW 27.0 mph43.5 kmh 30.00 in1015.9 mb 0.00 in0.0 mm 0.00 in0.0 mm 0.29 in7.4 mm
05:00 PM 63.0°F17.2°C 58.7°F14.8°C 86% 13.0 mph SW20.9 kmh SW 26.0 mph41.8 kmh 30.01 in1016.3 mb 0.00 in0.0 mm 0.00 in0.0 mm 0.29 in7.4 mm
05:15 PM 62.6°F17.0°C 58.7°F14.8°C 87% 11.0 mph SW17.7 kmh SW 21.0 mph33.8 kmh 30.02 in1016.6 mb 0.00 in0.0 mm 0.00 in0.0 mm 0.29 in7.4 mm
05:30 PM 62.1°F16.7°C 58.1°F14.5°C 87% 9.0 mph SW14.5 kmh SW 21.0 mph33.8 kmh 30.03 in1016.9 mb 0.00 in0.0 mm 0.00 in0.0 mm 0.29 in7.4 mm
05:45 PM 61.2°F16.2°C 57.6°F14.2°C 88% 9.0 mph SW14.5 kmh SW 21.0 mph33.8 kmh 30.02 in1016.6 mb 0.00 in0.0 mm 0.00 in0.0 mm 0.29 in7.4 mm
06:00 PM 61.0°F16.1°C 57.7°F14.3°C 89% 9.0 mph SW14.5 kmh SW 22.0 mph35.4 kmh 30.02 in1016.6 mb 0.00 in0.0 mm 0.00 in0.0 mm 0.29 in7.4 mm
06:15 PM 60.6°F15.9°C 57.0°F13.9°C 88% 9.0 mph SW14.5 kmh SW 19.0 mph30.6 kmh 30.03 in1016.9 mb 0.00 in0.0 mm 0.00 in0.0 mm 0.29 in7.4 mm
06:30 PM 60.4°F15.8°C 56.9°F13.8°C 88% 9.0 mph SW14.5 kmh SW 21.0 mph33.8 kmh 30.03 in1016.9 mb 0.00 in0.0 mm 0.00 in0.0 mm 0.29 in7.4 mm
06:45 PM 60.3°F15.7°C 57.0°F13.9°C 89% 10.0 mph SW16.1 kmh SW 20.0 mph32.2 kmh 30.03 in1016.9 mb 0.00 in0.0 mm 0.00 in0.0 mm 0.29 in7.4 mm
07:00 PM 60.1°F15.6°C 56.8°F13.8°C 89% 9.0 mph SW14.5 kmh SW 19.0 mph30.6 kmh 30.03 in1016.9 mb 0.00 in0.0 mm 0.00 in0.0 mm 0.29 in7.4 mm
07:15 PM 60.3°F15.7°C 56.7°F13.7°C 88% 9.0 mph SW14.5 kmh SW 17.0 mph27.4 kmh 30.03 in1016.9 mb 0.00 in0.0 mm 0.00 in0.0 mm 0.29 in7.4 mm
07:30 PM 60.3°F15.7°C 56.7°F13.7°C 88% 7.0 mph SW11.3 kmh SW 14.0 mph22.5 kmh 30.04 in1017.3 mb 0.00 in0.0 mm 0.00 in0.0 mm 0.29 in7.4 mm
07:45 PM 60.1°F15.6°C 56.5°F13.6°C 88% 7.0 mph SW11.3 kmh SW 16.0 mph25.7 kmh 30.04 in1017.3 mb 0.00 in0.0 mm 0.00 in0.0 mm 0.29 in7.4 mm
08:00 PM 59.7°F15.4°C 56.2°F13.4°C 88% 5.0 mph SW8.0 kmh SW 12.0 mph19.3 kmh 30.04 in1017.3 mb 0.00 in0.0 mm 0.00 in0.0 mm 0.29 in7.4 mm
08:15 PM 59.5°F15.3°C 56.3°F13.5°C 89% 4.0 mph SSW6.4 kmh SSW 12.0 mph19.3 kmh 30.03 in1016.9 mb 0.00 in0.0 mm 0.00 in0.0 mm 0.29 in7.4 mm
08:30 PM 59.5°F15.3°C 56.3°F13.5°C 89% 5.0 mph S8.0 kmh S 12.0 mph19.3 kmh 30.02 in1016.6 mb 0.00 in0.0 mm 0.00 in0.0 mm 0.29 in7.4 mm
08:45 PM 59.5°F15.3°C 56.0°F13.3°C 88% 4.0 mph SSW6.4 kmh SSW 9.0 mph14.5 kmh 30.02 in1016.6 mb 0.00 in0.0 mm 0.00 in0.0 mm 0.29 in7.4 mm
09:00 PM 59.5°F15.3°C 56.0°F13.3°C 88% 5.0 mph SSW8.0 kmh SSW 13.0 mph20.9 kmh 30.02 in1016.6 mb 0.00 in0.0 mm 0.00 in0.0 mm 0.29 in7.4 mm
09:15 PM 59.5°F15.3°C 56.0°F13.3°C 88% 6.0 mph SSW9.7 kmh SSW 11.0 mph17.7 kmh 30.02 in1016.6 mb 0.00 in0.0 mm 0.00 in0.0 mm 0.29 in7.4 mm
09:30 PM 59.2°F15.1°C 55.6°F13.1°C 88% 4.0 mph SSW6.4 kmh SSW 11.0 mph17.7 kmh 30.01 in1016.3 mb 0.00 in0.0 mm 0.00 in0.0 mm 0.29 in7.4 mm
09:45 PM 59.2°F15.1°C 55.6°F13.1°C 88% 3.0 mph SSW4.8 kmh SSW 8.0 mph12.9 kmh 30.00 in1015.9 mb 0.00 in0.0 mm 0.00 in0.0 mm 0.29 in7.4 mm
10:00 PM 59.2°F15.1°C 55.3°F12.9°C 87% 5.0 mph S8.0 kmh S 11.0 mph17.7 kmh 30.00 in1015.9 mb 0.00 in0.0 mm 0.00 in0.0 mm 0.29 in7.4 mm
10:15 PM 59.4°F15.2°C 55.2°F12.9°C 86% 6.0 mph S9.7 kmh S 13.0 mph20.9 kmh 30.00 in1015.9 mb 0.00 in0.0 mm 0.00 in0.0 mm 0.29 in7.4 mm
10:30 PM 59.7°F15.4°C 55.2°F12.9°C 85% 5.0 mph S8.0 kmh S 8.0 mph12.9 kmh 29.99 in1015.6 mb 0.00 in0.0 mm 0.00 in0.0 mm 0.29 in7.4 mm
10:45 PM 60.3°F15.7°C 55.1°F12.8°C 83% 5.0 mph SSW8.0 kmh SSW 11.0 mph17.7 kmh 30.00 in1015.9 mb 0.00 in0.0 mm 0.00 in0.0 mm 0.29 in7.4 mm
11:00 PM 61.0°F16.1°C 55.4°F13.0°C 82% 5.0 mph SSW8.0 kmh SSW 12.0 mph19.3 kmh 29.99 in1015.6 mb 0.00 in0.0 mm 0.00 in0.0 mm 0.29 in7.4 mm
11:15 PM 62.2°F16.8°C 55.3°F12.9°C 78% 6.0 mph SSW9.7 kmh SSW 14.0 mph22.5 kmh 29.99 in1015.6 mb 0.00 in0.0 mm 0.00 in0.0 mm 0.29 in7.4 mm
11:30 PM 63.1°F17.3°C 55.1°F12.8°C 75% 6.0 mph SSW9.7 kmh SSW 14.0 mph22.5 kmh 29.99 in1015.6 mb 0.00 in0.0 mm 0.00 in0.0 mm 0.29 in7.4 mm
11:45 PM 63.9°F17.7°C 55.0°F12.8°C 73% 6.0 mph SSW9.7 kmh SSW 19.0 mph30.6 kmh 29.99 in1015.6 mb 0.00 in0.0 mm 0.00 in0.0 mm 0.29 in7.4 mm